sensor_id;sensor_type;location;lat;lon;timestamp;P1;durP1;ratioP1;P2;durP2;ratioP2
12476;SDS011;6303;51.504;6.300;2023-03-01T00:00:05;2.05;;;1.80;;
12476;SDS011;6303;51.504;6.300;2023-03-01T00:02:36;2.15;;;1.60;;
12476;SDS011;6303;51.504;6.300;2023-03-01T00:05:04;2.40;;;1.92;;
12476;SDS011;6303;51.504;6.300;2023-03-01T00:07:34;2.17;;;1.80;;
12476;SDS011;6303;51.504;6.300;2023-03-01T00:10:01;2.70;;;1.75;;
12476;SDS011;6303;51.504;6.300;2023-03-01T00:12:28;2.85;;;1.88;;
12476;SDS011;6303;51.504;6.300;2023-03-01T00:14:55;2.28;;;1.80;;
12476;SDS011;6303;51.504;6.300;2023-03-01T00:17:21;1.80;;;1.70;;
12476;SDS011;6303;51.504;6.300;2023-03-01T00:19:48;2.50;;;1.80;;
12476;SDS011;6303;51.504;6.300;2023-03-01T00:22:15;1.90;;;1.80;;
12476;SDS011;6303;51.504;6.300;2023-03-01T00:24:44;2.10;;;1.80;;
12476;SDS011;6303;51.504;6.300;2023-03-01T00:27:11;1.95;;;1.80;;
12476;SDS011;6303;51.504;6.300;2023-03-01T00:29:38;2.78;;;1.70;;
12476;SDS011;6303;51.504;6.300;2023-03-01T00:32:05;2.05;;;1.80;;
12476;SDS011;6303;51.504;6.300;2023-03-01T00:34:32;2.78;;;1.70;;
12476;SDS011;6303;51.504;6.300;2023-03-01T00:36:59;1.83;;;1.73;;
12476;SDS011;6303;51.504;6.300;2023-03-01T00:39:30;1.98;;;1.70;;
12476;SDS011;6303;51.504;6.300;2023-03-01T00:41:59;1.80;;;1.70;;
12476;SDS011;6303;51.504;6.300;2023-03-01T00:44:27;2.25;;;1.90;;
12476;SDS011;6303;51.504;6.300;2023-03-01T00:46:54;2.03;;;1.77;;
12476;SDS011;6303;51.504;6.300;2023-03-01T00:49:21;2.67;;;1.88;;
12476;SDS011;6303;51.504;6.300;2023-03-01T00:51:49;3.17;;;1.80;;
12476;SDS011;6303;51.504;6.300;2023-03-01T00:54:16;1.95;;;1.85;;
12476;SDS011;6303;51.504;6.300;2023-03-01T00:56:43;1.80;;;1.70;;
12476;SDS011;6303;51.504;6.300;2023-03-01T00:59:11;1.70;;;1.60;;
12476;SDS011;6303;51.504;6.300;2023-03-01T01:01:39;2.58;;;2.00;;
12476;SDS011;6303;51.504;6.300;2023-03-01T01:04:07;1.70;;;1.60;;
12476;SDS011;6303;51.504;6.300;2023-03-01T01:06:37;1.77;;;1.67;;
12476;SDS011;6303;51.504;6.300;2023-03-01T01:09:07;2.03;;;1.73;;
12476;SDS011;6303;51.504;6.300;2023-03-01T01:11:42;2.53;;;1.90;;
12476;SDS011;6303;51.504;6.300;2023-03-01T01:14:09;1.85;;;1.75;;
12476;SDS011;6303;51.504;6.300;2023-03-01T01:16:38;1.80;;;1.70;;
12476;SDS011;6303;51.504;6.300;2023-03-01T01:19:06;1.88;;;1.77;;
12476;SDS011;6303;51.504;6.300;2023-03-01T01:21:33;1.98;;;1.88;;
12476;SDS011;6303;51.504;6.300;2023-03-01T01:24:00;3.25;;;1.90;;
12476;SDS011;6303;51.504;6.300;2023-03-01T01:26:29;1.90;;;1.80;;
12476;SDS011;6303;51.504;6.300;2023-03-01T01:28:59;1.98;;;1.73;;
12476;SDS011;6303;51.504;6.300;2023-03-01T01:31:29;1.90;;;1.80;;
12476;SDS011;6303;51.504;6.300;2023-03-01T01:33:56;1.92;;;1.70;;
12476;SDS011;6303;51.504;6.300;2023-03-01T01:36:24;1.83;;;1.70;;
12476;SDS011;6303;51.504;6.300;2023-03-01T01:38:51;4.05;;;1.80;;
12476;SDS011;6303;51.504;6.300;2023-03-01T01:41:18;2.20;;;2.00;;
12476;SDS011;6303;51.504;6.300;2023-03-01T01:43:47;1.70;;;1.60;;
12476;SDS011;6303;51.504;6.300;2023-03-01T01:46:18;2.47;;;1.70;;
12476;SDS011;6303;51.504;6.300;2023-03-01T01:48:54;1.95;;;1.85;;
12476;SDS011;6303;51.504;6.300;2023-03-01T01:51:25;1.83;;;1.73;;
12476;SDS011;6303;51.504;6.300;2023-03-01T01:54:05;2.25;;;1.98;;
12476;SDS011;6303;51.504;6.300;2023-03-01T01:56:35;1.90;;;1.80;;
12476;SDS011;6303;51.504;6.300;2023-03-01T01:59:05;2.17;;;1.85;;
12476;SDS011;6303;51.504;6.300;2023-03-01T02:01:32;1.98;;;1.80;;
12476;SDS011;6303;51.504;6.300;2023-03-01T02:04:01;3.08;;;1.88;;
12476;SDS011;6303;51.504;6.300;2023-03-01T02:06:29;1.98;;;1.88;;
12476;SDS011;6303;51.504;6.300;2023-03-01T02:09:02;1.92;;;1.83;;
12476;SDS011;6303;51.504;6.300;2023-03-01T02:11:33;1.77;;;1.67;;
12476;SDS011;6303;51.504;6.300;2023-03-01T02:14:03;2.28;;;2.08;;
12476;SDS011;6303;51.504;6.300;2023-03-01T02:16:30;2.78;;;1.90;;
12476;SDS011;6303;51.504;6.300;2023-03-01T02:18:57;2.30;;;2.00;;
12476;SDS011;6303;51.504;6.300;2023-03-01T02:21:30;2.03;;;1.83;;
12476;SDS011;6303;51.504;6.300;2023-03-01T02:24:05;2.15;;;1.95;;
12476;SDS011;6303;51.504;6.300;2023-03-01T02:26:46;2.00;;;1.80;;
12476;SDS011;6303;51.504;6.300;2023-03-01T02:29:18;2.40;;;2.20;;
12476;SDS011;6303;51.504;6.300;2023-03-01T02:31:45;1.83;;;1.70;;
12476;SDS011;6303;51.504;6.300;2023-03-01T02:34:13;2.05;;;1.85;;
12476;SDS011;6303;51.504;6.300;2023-03-01T02:36:43;2.30;;;2.10;;
12476;SDS011;6303;51.504;6.300;2023-03-01T02:39:14;2.00;;;1.90;;
12476;SDS011;6303;51.504;6.300;2023-03-01T02:41:44;2.05;;;1.92;;
12476;SDS011;6303;51.504;6.300;2023-03-01T02:44:13;2.35;;;2.03;;
12476;SDS011;6303;51.504;6.300;2023-03-01T02:46:46;2.22;;;2.03;;
12476;SDS011;6303;51.504;6.300;2023-03-01T02:49:18;2.20;;;2.00;;
12476;SDS011;6303;51.504;6.300;2023-03-01T02:51:52;2.33;;;2.13;;
12476;SDS011;6303;51.504;6.300;2023-03-01T02:54:28;2.03;;;1.92;;
12476;SDS011;6303;51.504;6.300;2023-03-01T02:57:00;2.20;;;2.00;;
12476;SDS011;6303;51.504;6.300;2023-03-01T02:59:30;2.25;;;2.00;;
12476;SDS011;6303;51.504;6.300;2023-03-01T03:02:01;2.03;;;1.70;;
12476;SDS011;6303;51.504;6.300;2023-03-01T03:04:28;2.20;;;2.00;;
12476;SDS011;6303;51.504;6.300;2023-03-01T03:06:56;2.15;;;1.95;;
12476;SDS011;6303;51.504;6.300;2023-03-01T03:09:23;2.20;;;2.10;;
12476;SDS011;6303;51.504;6.300;2023-03-01T03:11:50;2.17;;;2.08;;
12476;SDS011;6303;51.504;6.300;2023-03-01T03:14:17;2.55;;;1.90;;
12476;SDS011;6303;51.504;6.300;2023-03-01T03:16:47;2.28;;;2.08;;
12476;SDS011;6303;51.504;6.300;2023-03-01T03:19:17;2.20;;;2.00;;
12476;SDS011;6303;51.504;6.300;2023-03-01T03:21:45;1.90;;;1.80;;
12476;SDS011;6303;51.504;6.300;2023-03-01T03:24:12;1.95;;;1.80;;
12476;SDS011;6303;51.504;6.300;2023-03-01T03:26:39;1.90;;;1.80;;
12476;SDS011;6303;51.504;6.300;2023-03-01T03:29:06;2.13;;;1.92;;
12476;SDS011;6303;51.504;6.300;2023-03-01T03:31:33;1.92;;;1.80;;
12476;SDS011;6303;51.504;6.300;2023-03-01T03:34:00;1.75;;;1.65;;
12476;SDS011;6303;51.504;6.300;2023-03-01T03:36:29;2.03;;;1.92;;
12476;SDS011;6303;51.504;6.300;2023-03-01T03:38:56;1.77;;;1.67;;
12476;SDS011;6303;51.504;6.300;2023-03-01T03:41:23;1.73;;;1.63;;
12476;SDS011;6303;51.504;6.300;2023-03-01T03:43:50;2.08;;;1.98;;
12476;SDS011;6303;51.504;6.300;2023-03-01T03:46:17;2.00;;;1.90;;
12476;SDS011;6303;51.504;6.300;2023-03-01T03:48:44;2.20;;;2.00;;
12476;SDS011;6303;51.504;6.300;2023-03-01T03:51:12;1.75;;;1.65;;
12476;SDS011;6303;51.504;6.300;2023-03-01T03:53:41;2.20;;;2.00;;
12476;SDS011;6303;51.504;6.300;2023-03-01T03:56:09;2.00;;;1.80;;
12476;SDS011;6303;51.504;6.300;2023-03-01T03:58:36;2.35;;;2.00;;
12476;SDS011;6303;51.504;6.300;2023-03-01T04:01:04;2.00;;;1.90;;
12476;SDS011;6303;51.504;6.300;2023-03-01T04:03:31;2.00;;;1.90;;
12476;SDS011;6303;51.504;6.300;2023-03-01T04:06:00;2.20;;;2.00;;
12476;SDS011;6303;51.504;6.300;2023-03-01T04:08:28;2.33;;;2.13;;
12476;SDS011;6303;51.504;6.300;2023-03-01T04:10:59;1.83;;;1.73;;
12476;SDS011;6303;51.504;6.300;2023-03-01T04:13:48;2.33;;;2.13;;
12476;SDS011;6303;51.504;6.300;2023-03-01T04:16:16;2.33;;;1.90;;
12476;SDS011;6303;51.504;6.300;2023-03-01T04:18:43;2.20;;;2.00;;
12476;SDS011;6303;51.504;6.300;2023-03-01T04:21:10;2.10;;;2.00;;
12476;SDS011;6303;51.504;6.300;2023-03-01T04:23:38;2.08;;;1.98;;
12476;SDS011;6303;51.504;6.300;2023-03-01T04:26:07;2.03;;;1.80;;
12476;SDS011;6303;51.504;6.300;2023-03-01T04:28:35;2.17;;;1.98;;
12476;SDS011;6303;51.504;6.300;2023-03-01T04:31:05;2.00;;;1.90;;
12476;SDS011;6303;51.504;6.300;2023-03-01T04:33:39;2.20;;;2.05;;
12476;SDS011;6303;51.504;6.300;2023-03-01T04:36:07;1.95;;;1.85;;
12476;SDS011;6303;51.504;6.300;2023-03-01T04:38:35;2.10;;;2.00;;
12476;SDS011;6303;51.504;6.300;2023-03-01T04:41:03;2.35;;;2.00;;
12476;SDS011;6303;51.504;6.300;2023-03-01T04:43:32;2.20;;;2.08;;
12476;SDS011;6303;51.504;6.300;2023-03-01T04:46:00;1.88;;;1.77;;
12476;SDS011;6303;51.504;6.300;2023-03-01T04:48:29;2.20;;;2.00;;
12476;SDS011;6303;51.504;6.300;2023-03-01T04:50:57;2.10;;;1.90;;
12476;SDS011;6303;51.504;6.300;2023-03-01T04:53:25;1.90;;;1.80;;
12476;SDS011;6303;51.504;6.300;2023-03-01T04:58:25;2.10;;;2.00;;
12476;SDS011;6303;51.504;6.300;2023-03-01T05:00:55;2.03;;;1.83;;
12476;SDS011;6303;51.504;6.300;2023-03-01T05:03:22;1.95;;;1.85;;
12476;SDS011;6303;51.504;6.300;2023-03-01T05:05:50;2.13;;;2.00;;
12476;SDS011;6303;51.504;6.300;2023-03-01T05:08:18;2.28;;;2.08;;
12476;SDS011;6303;51.504;6.300;2023-03-01T05:10:46;2.35;;;2.15;;
12476;SDS011;6303;51.504;6.300;2023-03-01T05:13:15;2.45;;;2.10;;
12476;SDS011;6303;51.504;6.300;2023-03-01T05:15:47;1.90;;;1.80;;
12476;SDS011;6303;51.504;6.300;2023-03-01T05:18:16;2.30;;;2.10;;
12476;SDS011;6303;51.504;6.300;2023-03-01T05:20:43;1.90;;;1.80;;
12476;SDS011;6303;51.504;6.300;2023-03-01T05:23:11;1.90;;;1.80;;
12476;SDS011;6303;51.504;6.300;2023-03-01T05:25:38;2.08;;;1.92;;
12476;SDS011;6303;51.504;6.300;2023-03-01T05:28:07;2.30;;;2.10;;
12476;SDS011;6303;51.504;6.300;2023-03-01T05:30:37;2.20;;;2.00;;
12476;SDS011;6303;51.504;6.300;2023-03-01T05:33:05;1.80;;;1.70;;
12476;SDS011;6303;51.504;6.300;2023-03-01T05:35:40;1.80;;;1.70;;
12476;SDS011;6303;51.504;6.300;2023-03-01T05:38:07;2.10;;;1.98;;
12476;SDS011;6303;51.504;6.300;2023-03-01T05:40:38;2.03;;;1.92;;
12476;SDS011;6303;51.504;6.300;2023-03-01T05:43:06;2.17;;;1.95;;
12476;SDS011;6303;51.504;6.300;2023-03-01T05:45:35;1.85;;;1.75;;
12476;SDS011;6303;51.504;6.300;2023-03-01T05:48:04;1.90;;;1.80;;
12476;SDS011;6303;51.504;6.300;2023-03-01T05:50:32;2.25;;;2.10;;
12476;SDS011;6303;51.504;6.300;2023-03-01T05:53:03;2.13;;;1.92;;
12476;SDS011;6303;51.504;6.300;2023-03-01T05:55:32;1.90;;;1.80;;
12476;SDS011;6303;51.504;6.300;2023-03-01T05:58:02;2.22;;;2.03;;
12476;SDS011;6303;51.504;6.300;2023-03-01T06:00:30;2.30;;;2.10;;
12476;SDS011;6303;51.504;6.300;2023-03-01T06:02:58;1.80;;;1.70;;
12476;SDS011;6303;51.504;6.300;2023-03-01T06:05:26;1.85;;;1.75;;
12476;SDS011;6303;51.504;6.300;2023-03-01T06:07:54;1.88;;;1.60;;
12476;SDS011;6303;51.504;6.300;2023-03-01T06:10:23;2.80;;;2.03;;
12476;SDS011;6303;51.504;6.300;2023-03-01T06:12:50;3.78;;;1.80;;
12476;SDS011;6303;51.504;6.300;2023-03-01T06:15:17;1.98;;;1.88;;
12476;SDS011;6303;51.504;6.300;2023-03-01T06:17:45;1.80;;;1.70;;
12476;SDS011;6303;51.504;6.300;2023-03-01T06:20:13;2.15;;;1.95;;
12476;SDS011;6303;51.504;6.300;2023-03-01T06:22:42;2.15;;;1.80;;
12476;SDS011;6303;51.504;6.300;2023-03-01T06:25:10;3.70;;;2.15;;
12476;SDS011;6303;51.504;6.300;2023-03-01T06:27:40;4.53;;;2.00;;
12476;SDS011;6303;51.504;6.300;2023-03-01T06:30:08;3.38;;;2.10;;
12476;SDS011;6303;51.504;6.300;2023-03-01T06:32:37;4.25;;;2.03;;
12476;SDS011;6303;51.504;6.300;2023-03-01T06:35:07;5.30;;;2.15;;
12476;SDS011;6303;51.504;6.300;2023-03-01T06:37:35;3.75;;;2.00;;
12476;SDS011;6303;51.504;6.300;2023-03-01T06:40:03;6.22;;;2.60;;
12476;SDS011;6303;51.504;6.300;2023-03-01T06:42:33;5.65;;;2.75;;
12476;SDS011;6303;51.504;6.300;2023-03-01T06:45:02;6.28;;;3.10;;
12476;SDS011;6303;51.504;6.300;2023-03-01T06:47:30;6.07;;;3.00;;
12476;SDS011;6303;51.504;6.300;2023-03-01T06:49:58;6.95;;;3.25;;
12476;SDS011;6303;51.504;6.300;2023-03-01T06:52:25;6.68;;;2.92;;
12476;SDS011;6303;51.504;6.300;2023-03-01T06:54:52;4.15;;;2.75;;
12476;SDS011;6303;51.504;6.300;2023-03-01T06:57:19;4.55;;;3.28;;
12476;SDS011;6303;51.504;6.300;2023-03-01T06:59:46;5.18;;;3.20;;
12476;SDS011;6303;51.504;6.300;2023-03-01T07:02:15;3.67;;;3.30;;
12476;SDS011;6303;51.504;6.300;2023-03-01T07:04:42;5.82;;;3.13;;
12476;SDS011;6303;51.504;6.300;2023-03-01T07:07:09;5.15;;;3.50;;
12476;SDS011;6303;51.504;6.300;2023-03-01T07:09:37;4.25;;;3.30;;
12476;SDS011;6303;51.504;6.300;2023-03-01T07:12:04;5.10;;;3.55;;
12476;SDS011;6303;51.504;6.300;2023-03-01T07:14:33;3.78;;;3.45;;
12476;SDS011;6303;51.504;6.300;2023-03-01T07:17:00;5.38;;;3.38;;
12476;SDS011;6303;51.504;6.300;2023-03-01T07:19:28;3.45;;;3.15;;
12476;SDS011;6303;51.504;6.300;2023-03-01T07:21:55;4.35;;;3.42;;
12476;SDS011;6303;51.504;6.300;2023-03-01T07:24:22;3.17;;;2.88;;
12476;SDS011;6303;51.504;6.300;2023-03-01T07:26:49;3.45;;;2.67;;
12476;SDS011;6303;51.504;6.300;2023-03-01T07:29:18;3.20;;;2.80;;
12476;SDS011;6303;51.504;6.300;2023-03-01T07:31:45;6.38;;;2.80;;
12476;SDS011;6303;51.504;6.300;2023-03-01T07:34:12;3.22;;;2.53;;
12476;SDS011;6303;51.504;6.300;2023-03-01T07:36:40;6.28;;;3.08;;
12476;SDS011;6303;51.504;6.300;2023-03-01T07:39:08;5.05;;;2.90;;
12476;SDS011;6303;51.504;6.300;2023-03-01T07:41:36;6.72;;;3.20;;
12476;SDS011;6303;51.504;6.300;2023-03-01T07:44:03;5.65;;;3.10;;
12476;SDS011;6303;51.504;6.300;2023-03-01T07:46:30;5.28;;;2.55;;
12476;SDS011;6303;51.504;6.300;2023-03-01T07:48:57;3.90;;;3.05;;
12476;SDS011;6303;51.504;6.300;2023-03-01T07:51:25;6.45;;;3.00;;
12476;SDS011;6303;51.504;6.300;2023-03-01T07:53:53;7.97;;;2.83;;
12476;SDS011;6303;51.504;6.300;2023-03-01T07:56:20;5.05;;;2.80;;
12476;SDS011;6303;51.504;6.300;2023-03-01T07:58:47;8.40;;;2.92;;
12476;SDS011;6303;51.504;6.300;2023-03-01T08:01:15;6.80;;;3.15;;
12476;SDS011;6303;51.504;6.300;2023-03-01T08:03:43;6.40;;;2.97;;
12476;SDS011;6303;51.504;6.300;2023-03-01T08:06:11;6.70;;;2.72;;
12476;SDS011;6303;51.504;6.300;2023-03-01T08:08:40;5.78;;;3.05;;
12476;SDS011;6303;51.504;6.300;2023-03-01T08:11:10;9.10;;;3.17;;
12476;SDS011;6303;51.504;6.300;2023-03-01T08:13:38;8.07;;;3.35;;
12476;SDS011;6303;51.504;6.300;2023-03-01T08:16:06;8.88;;;3.08;;
12476;SDS011;6303;51.504;6.300;2023-03-01T08:18:35;9.20;;;2.83;;
12476;SDS011;6303;51.504;6.300;2023-03-01T08:21:02;8.32;;;3.13;;
12476;SDS011;6303;51.504;6.300;2023-03-01T08:23:30;4.78;;;2.70;;
12476;SDS011;6303;51.504;6.300;2023-03-01T08:26:04;6.75;;;2.80;;
12476;SDS011;6303;51.504;6.300;2023-03-01T08:28:34;5.40;;;2.90;;
12476;SDS011;6303;51.504;6.300;2023-03-01T08:31:02;6.25;;;3.03;;
12476;SDS011;6303;51.504;6.300;2023-03-01T08:33:29;7.28;;;2.80;;
12476;SDS011;6303;51.504;6.300;2023-03-01T08:36:03;8.52;;;3.30;;
12476;SDS011;6303;51.504;6.300;2023-03-01T08:38:32;7.80;;;3.08;;
12476;SDS011;6303;51.504;6.300;2023-03-01T08:40:59;5.57;;;3.00;;
12476;SDS011;6303;51.504;6.300;2023-03-01T08:43:27;5.15;;;3.08;;
12476;SDS011;6303;51.504;6.300;2023-03-01T08:45:55;5.97;;;2.58;;
12476;SDS011;6303;51.504;6.300;2023-03-01T08:48:22;6.25;;;2.80;;
12476;SDS011;6303;51.504;6.300;2023-03-01T08:50:50;9.32;;;3.08;;
12476;SDS011;6303;51.504;6.300;2023-03-01T08:53:17;6.28;;;2.95;;
12476;SDS011;6303;51.504;6.300;2023-03-01T08:55:44;6.05;;;3.10;;
12476;SDS011;6303;51.504;6.300;2023-03-01T08:58:11;5.88;;;2.78;;
12476;SDS011;6303;51.504;6.300;2023-03-01T09:00:38;5.25;;;2.83;;
12476;SDS011;6303;51.504;6.300;2023-03-01T09:03:06;4.95;;;2.67;;
12476;SDS011;6303;51.504;6.300;2023-03-01T09:05:34;4.20;;;2.55;;
12476;SDS011;6303;51.504;6.300;2023-03-01T09:08:02;7.07;;;2.58;;
12476;SDS011;6303;51.504;6.300;2023-03-01T09:10:29;6.93;;;2.75;;
12476;SDS011;6303;51.504;6.300;2023-03-01T09:12:56;5.05;;;2.55;;
12476;SDS011;6303;51.504;6.300;2023-03-01T09:15:23;7.43;;;3.00;;
12476;SDS011;6303;51.504;6.300;2023-03-01T09:17:50;5.50;;;2.85;;
12476;SDS011;6303;51.504;6.300;2023-03-01T09:20:18;4.63;;;2.40;;
12476;SDS011;6303;51.504;6.300;2023-03-01T09:22:45;6.53;;;2.65;;
12476;SDS011;6303;51.504;6.300;2023-03-01T09:25:13;4.85;;;2.40;;
12476;SDS011;6303;51.504;6.300;2023-03-01T09:27:40;4.50;;;3.05;;
12476;SDS011;6303;51.504;6.300;2023-03-01T09:30:07;4.38;;;2.42;;
12476;SDS011;6303;51.504;6.300;2023-03-01T09:32:36;5.90;;;2.85;;
12476;SDS011;6303;51.504;6.300;2023-03-01T09:35:03;3.80;;;2.83;;
12476;SDS011;6303;51.504;6.300;2023-03-01T09:37:32;4.03;;;2.75;;
12476;SDS011;6303;51.504;6.300;2023-03-01T09:40:00;3.78;;;2.70;;
12476;SDS011;6303;51.504;6.300;2023-03-01T09:42:28;7.18;;;2.92;;
12476;SDS011;6303;51.504;6.300;2023-03-01T09:44:58;5.57;;;2.40;;
12476;SDS011;6303;51.504;6.300;2023-03-01T09:47:29;4.70;;;2.67;;
12476;SDS011;6303;51.504;6.300;2023-03-01T09:49:58;7.32;;;2.58;;
12476;SDS011;6303;51.504;6.300;2023-03-01T09:52:33;4.22;;;2.60;;
12476;SDS011;6303;51.504;6.300;2023-03-01T09:55:07;4.82;;;2.55;;
12476;SDS011;6303;51.504;6.300;2023-03-01T09:57:39;5.82;;;2.70;;
12476;SDS011;6303;51.504;6.300;2023-03-01T10:00:15;5.35;;;3.00;;
12476;SDS011;6303;51.504;6.300;2023-03-01T10:02:48;3.70;;;2.70;;
12476;SDS011;6303;51.504;6.300;2023-03-01T10:05:27;5.47;;;2.60;;
12476;SDS011;6303;51.504;6.300;2023-03-01T10:08:27;3.50;;;2.85;;
12476;SDS011;6303;51.504;6.300;2023-03-01T10:11:02;3.03;;;2.47;;
12476;SDS011;6303;51.504;6.300;2023-03-01T10:13:33;4.75;;;2.35;;
12476;SDS011;6303;51.504;6.300;2023-03-01T10:16:06;3.63;;;2.42;;
12476;SDS011;6303;51.504;6.300;2023-03-01T10:18:40;3.70;;;2.50;;
12476;SDS011;6303;51.504;6.300;2023-03-01T10:21:12;4.43;;;2.83;;
12476;SDS011;6303;51.504;6.300;2023-03-01T10:23:43;3.33;;;2.60;;
12476;SDS011;6303;51.504;6.300;2023-03-01T10:26:20;3.22;;;2.33;;
12476;SDS011;6303;51.504;6.300;2023-03-01T10:28:58;4.22;;;2.60;;
12476;SDS011;6303;51.504;6.300;2023-03-01T10:31:32;3.53;;;2.40;;
12476;SDS011;6303;51.504;6.300;2023-03-01T10:34:08;3.15;;;2.30;;
12476;SDS011;6303;51.504;6.300;2023-03-01T10:36:36;4.32;;;2.60;;
12476;SDS011;6303;51.504;6.300;2023-03-01T10:39:12;6.57;;;2.70;;
12476;SDS011;6303;51.504;6.300;2023-03-01T10:41:51;3.75;;;2.65;;
12476;SDS011;6303;51.504;6.300;2023-03-01T10:44:40;2.55;;;2.20;;
12476;SDS011;6303;51.504;6.300;2023-03-01T10:47:13;3.95;;;2.50;;
12476;SDS011;6303;51.504;6.300;2023-03-01T10:49:51;4.05;;;2.42;;
12476;SDS011;6303;51.504;6.300;2023-03-01T10:52:20;2.95;;;2.33;;
12476;SDS011;6303;51.504;6.300;2023-03-01T10:54:54;3.63;;;2.40;;
12476;SDS011;6303;51.504;6.300;2023-03-01T10:57:30;3.75;;;2.20;;
12476;SDS011;6303;51.504;6.300;2023-03-01T11:00:17;3.60;;;2.50;;
12476;SDS011;6303;51.504;6.300;2023-03-01T11:02:50;3.70;;;2.45;;
12476;SDS011;6303;51.504;6.300;2023-03-01T11:05:29;3.25;;;2.58;;
12476;SDS011;6303;51.504;6.300;2023-03-01T11:07:59;3.22;;;2.22;;
12476;SDS011;6303;51.504;6.300;2023-03-01T11:10:30;3.65;;;2.45;;
12476;SDS011;6303;51.504;6.300;2023-03-01T11:13:06;3.63;;;2.30;;
12476;SDS011;6303;51.504;6.300;2023-03-01T11:15:35;4.53;;;2.42;;
12476;SDS011;6303;51.504;6.300;2023-03-01T11:18:03;3.08;;;2.50;;
12476;SDS011;6303;51.504;6.300;2023-03-01T11:20:31;3.30;;;2.45;;
12476;SDS011;6303;51.504;6.300;2023-03-01T11:23:01;3.60;;;2.33;;
12476;SDS011;6303;51.504;6.300;2023-03-01T11:25:34;3.35;;;2.42;;
12476;SDS011;6303;51.504;6.300;2023-03-01T11:28:04;4.88;;;2.40;;
12476;SDS011;6303;51.504;6.300;2023-03-01T11:30:35;4.45;;;2.60;;
12476;SDS011;6303;51.504;6.300;2023-03-01T11:33:12;4.40;;;2.42;;
12476;SDS011;6303;51.504;6.300;2023-03-01T11:35:45;3.28;;;2.20;;
12476;SDS011;6303;51.504;6.300;2023-03-01T11:38:19;3.97;;;2.35;;
12476;SDS011;6303;51.504;6.300;2023-03-01T11:40:51;3.72;;;2.10;;
12476;SDS011;6303;51.504;6.300;2023-03-01T11:43:26;3.40;;;2.28;;
12476;SDS011;6303;51.504;6.300;2023-03-01T11:46:08;2.38;;;2.17;;
12476;SDS011;6303;51.504;6.300;2023-03-01T11:49:01;3.15;;;1.92;;
12476;SDS011;6303;51.504;6.300;2023-03-01T11:51:38;4.32;;;2.10;;
12476;SDS011;6303;51.504;6.300;2023-03-01T11:54:14;4.07;;;2.15;;
12476;SDS011;6303;51.504;6.300;2023-03-01T11:56:51;3.80;;;2.25;;
12476;SDS011;6303;51.504;6.300;2023-03-01T12:02:35;2.45;;;2.25;;
12476;SDS011;6303;51.504;6.300;2023-03-01T12:05:24;3.42;;;2.45;;
12476;SDS011;6303;51.504;6.300;2023-03-01T12:08:20;3.70;;;2.35;;
12476;SDS011;6303;51.504;6.300;2023-03-01T12:10:56;2.90;;;2.13;;
12476;SDS011;6303;51.504;6.300;2023-03-01T12:13:36;3.22;;;2.00;;
12476;SDS011;6303;51.504;6.300;2023-03-01T12:16:27;2.88;;;2.20;;
12476;SDS011;6303;51.504;6.300;2023-03-01T12:19:24;2.65;;;2.28;;
12476;SDS011;6303;51.504;6.300;2023-03-01T12:22:02;2.88;;;2.20;;
12476;SDS011;6303;51.504;6.300;2023-03-01T12:24:48;3.15;;;2.20;;
12476;SDS011;6303;51.504;6.300;2023-03-01T12:27:32;5.10;;;2.25;;
12476;SDS011;6303;51.504;6.300;2023-03-01T12:30:23;3.38;;;2.40;;
12476;SDS011;6303;51.504;6.300;2023-03-01T12:33:08;2.38;;;1.95;;
12476;SDS011;6303;51.504;6.300;2023-03-01T12:35:54;2.70;;;2.28;;
12476;SDS011;6303;51.504;6.300;2023-03-01T12:38:41;3.25;;;2.08;;
12476;SDS011;6303;51.504;6.300;2023-03-01T12:44:20;2.40;;;2.00;;
12476;SDS011;6303;51.504;6.300;2023-03-01T12:47:10;3.38;;;2.17;;
12476;SDS011;6303;51.504;6.300;2023-03-01T12:49:51;3.13;;;2.30;;
12476;SDS011;6303;51.504;6.300;2023-03-01T12:52:22;2.25;;;2.05;;
12476;SDS011;6303;51.504;6.300;2023-03-01T12:54:55;3.40;;;2.40;;
12476;SDS011;6303;51.504;6.300;2023-03-01T12:57:29;2.20;;;2.00;;
12476;SDS011;6303;51.504;6.300;2023-03-01T13:00:06;3.38;;;2.20;;
12476;SDS011;6303;51.504;6.300;2023-03-01T13:02:49;2.25;;;2.05;;
12476;SDS011;6303;51.504;6.300;2023-03-01T13:05:26;2.40;;;2.10;;
12476;SDS011;6303;51.504;6.300;2023-03-01T13:08:04;2.20;;;2.00;;
12476;SDS011;6303;51.504;6.300;2023-03-01T13:10:40;3.10;;;2.03;;
12476;SDS011;6303;51.504;6.300;2023-03-01T13:13:13;2.53;;;2.08;;
12476;SDS011;6303;51.504;6.300;2023-03-01T13:15:45;2.35;;;2.15;;
12476;SDS011;6303;51.504;6.300;2023-03-01T13:18:31;3.38;;;2.10;;
12476;SDS011;6303;51.504;6.300;2023-03-01T13:20:59;2.63;;;2.25;;
12476;SDS011;6303;51.504;6.300;2023-03-01T13:23:29;2.85;;;2.47;;
12476;SDS011;6303;51.504;6.300;2023-03-01T13:26:00;2.28;;;2.00;;
12476;SDS011;6303;51.504;6.300;2023-03-01T13:37:19;2.80;;;2.47;;
12476;SDS011;6303;51.504;6.300;2023-03-01T13:39:55;2.05;;;1.85;;
12476;SDS011;6303;51.504;6.300;2023-03-01T13:42:35;2.97;;;2.28;;
12476;SDS011;6303;51.504;6.300;2023-03-01T13:45:17;2.25;;;2.00;;
12476;SDS011;6303;51.504;6.300;2023-03-01T13:47:49;1.98;;;1.80;;
12476;SDS011;6303;51.504;6.300;2023-03-01T13:50:23;2.10;;;1.90;;
12476;SDS011;6303;51.504;6.300;2023-03-01T13:52:55;2.45;;;2.20;;
12476;SDS011;6303;51.504;6.300;2023-03-01T13:55:27;2.30;;;2.10;;
12476;SDS011;6303;51.504;6.300;2023-03-01T13:58:01;2.47;;;1.92;;
12476;SDS011;6303;51.504;6.300;2023-03-01T14:00:35;2.45;;;1.92;;
12476;SDS011;6303;51.504;6.300;2023-03-01T14:03:04;2.20;;;1.92;;
12476;SDS011;6303;51.504;6.300;2023-03-01T14:05:42;2.33;;;1.90;;
12476;SDS011;6303;51.504;6.300;2023-03-01T14:08:18;2.28;;;2.00;;
12476;SDS011;6303;51.504;6.300;2023-03-01T14:10:51;2.13;;;1.90;;
12476;SDS011;6303;51.504;6.300;2023-03-01T14:13:36;2.20;;;2.00;;
12476;SDS011;6303;51.504;6.300;2023-03-01T14:16:17;2.03;;;1.90;;
12476;SDS011;6303;51.504;6.300;2023-03-01T14:18:53;2.25;;;2.00;;
12476;SDS011;6303;51.504;6.300;2023-03-01T14:21:32;1.90;;;1.80;;
12476;SDS011;6303;51.504;6.300;2023-03-01T14:24:00;2.20;;;1.92;;
12476;SDS011;6303;51.504;6.300;2023-03-01T14:26:27;2.78;;;2.17;;
12476;SDS011;6303;51.504;6.300;2023-03-01T14:28:55;2.15;;;1.95;;
12476;SDS011;6303;51.504;6.300;2023-03-01T14:31:32;2.55;;;1.98;;
12476;SDS011;6303;51.504;6.300;2023-03-01T14:34:03;2.30;;;2.13;;
12476;SDS011;6303;51.504;6.300;2023-03-01T14:36:33;3.40;;;2.42;;
12476;SDS011;6303;51.504;6.300;2023-03-01T14:39:00;2.03;;;1.92;;
12476;SDS011;6303;51.504;6.300;2023-03-01T14:41:32;2.40;;;2.03;;
12476;SDS011;6303;51.504;6.300;2023-03-01T14:44:03;2.05;;;1.92;;
12476;SDS011;6303;51.504;6.300;2023-03-01T14:46:34;2.80;;;2.20;;
12476;SDS011;6303;51.504;6.300;2023-03-01T14:49:04;3.20;;;2.03;;
12476;SDS011;6303;51.504;6.300;2023-03-01T14:51:38;2.22;;;2.03;;
12476;SDS011;6303;51.504;6.300;2023-03-01T14:54:15;2.22;;;2.00;;
12476;SDS011;6303;51.504;6.300;2023-03-01T14:56:47;2.70;;;1.95;;
12476;SDS011;6303;51.504;6.300;2023-03-01T14:59:14;3.50;;;2.03;;
12476;SDS011;6303;51.504;6.300;2023-03-01T15:01:41;2.90;;;2.20;;
12476;SDS011;6303;51.504;6.300;2023-03-01T15:04:11;2.53;;;1.85;;
12476;SDS011;6303;51.504;6.300;2023-03-01T15:06:41;2.42;;;2.22;;
12476;SDS011;6303;51.504;6.300;2023-03-01T15:09:12;2.35;;;2.15;;
12476;SDS011;6303;51.504;6.300;2023-03-01T15:11:42;2.30;;;2.08;;
12476;SDS011;6303;51.504;6.300;2023-03-01T15:14:25;2.20;;;2.00;;
12476;SDS011;6303;51.504;6.300;2023-03-01T15:16:54;2.35;;;2.15;;
12476;SDS011;6303;51.504;6.300;2023-03-01T15:19:21;2.33;;;2.13;;
12476;SDS011;6303;51.504;6.300;2023-03-01T15:21:55;4.80;;;2.17;;
12476;SDS011;6303;51.504;6.300;2023-03-01T15:24:24;2.97;;;2.10;;
12476;SDS011;6303;51.504;6.300;2023-03-01T15:26:55;2.53;;;1.92;;
12476;SDS011;6303;51.504;6.300;2023-03-01T15:29:27;2.72;;;2.05;;
12476;SDS011;6303;51.504;6.300;2023-03-01T15:31:57;2.10;;;1.90;;
12476;SDS011;6303;51.504;6.300;2023-03-01T15:34:26;3.05;;;2.17;;
12476;SDS011;6303;51.504;6.300;2023-03-01T15:36:56;2.25;;;2.00;;
12476;SDS011;6303;51.504;6.300;2023-03-01T15:39:27;2.47;;;1.90;;